»·PEaware :: AAL1931 KLAX-KPHX

AAL1931 :: KLAX-KPHX

FLIGHT INFORMATION

Flight Status: Arrived
Operator:
American Airlines
More flights by this operator :: More flights under this callsign
Pilot: Alfredo R. (12181)
Aircraft: BOEING 737-800
(B738)
More flights by this aircraft type
Origin: KLAX Los Angeles Intl
United States
Destination: KPHX Phoenix Sky Harbor Intl
United States
More flights between these airports :: More routes between these airports
Route: +DOTSS2 CNERY BLH HYDRR1
File this flight plan on PilotEdge
Remarks:
Altitude:
(Current/Filed)
330ft
Speed:
(Current/Filed)
425kts
Departed: 16-Jun-20 06:33 PM
Arrived: 16-Jun-20 07:36 PM
Distance/Time
Traveled:
321nm/1:03
Distance/Time
To Go:
Arrived

Flight Plot

Page will automatically refresh every two minutes.

Flight plan parsing failed; only flown route is shown


Map Options




Map Legend


Flown Route
Filed Route
Departure Airport
Arrival Airport
Navaid (VOR, NDB)
Fix

Horizontal Profiles

Position Reports

Time Latitude Longitude Heading Altitude Ground
Speed
16-Jun-20 17:55 33.939670 -118.406549 353 123ft 0kts
16-Jun-20 17:56 33.939670 -118.406549 353 123ft 0kts
16-Jun-20 17:57 33.939670 -118.406549 353 123ft 0kts
16-Jun-20 17:58 33.939670 -118.406549 353 123ft 0kts
16-Jun-20 17:59 33.939670 -118.406549 353 123ft 0kts
16-Jun-20 18:01 33.939670 -118.406549 353 123ft 0kts
16-Jun-20 18:01 33.939670 -118.406549 353 123ft 0kts
16-Jun-20 18:02 33.939670 -118.406549 353 123ft 0kts
16-Jun-20 18:03 33.939670 -118.406549 353 123ft 0kts
16-Jun-20 18:04 33.939670 -118.406549 353 123ft 0kts
16-Jun-20 18:05 33.939670 -118.406549 353 123ft 0kts
16-Jun-20 18:06 33.939670 -118.406549 353 123ft 0kts
16-Jun-20 18:07 33.939670 -118.406549 353 123ft 0kts
16-Jun-20 18:08 33.939670 -118.406549 353 123ft 0kts
16-Jun-20 18:09 33.939670 -118.406549 353 123ft 0kts
16-Jun-20 18:10 33.939670 -118.406549 353 123ft 0kts
16-Jun-20 18:11 33.939670 -118.406549 353 123ft 0kts
16-Jun-20 18:12 33.939670 -118.406549 353 123ft 0kts
16-Jun-20 18:13 33.939670 -118.406549 353 123ft 0kts
16-Jun-20 18:14 33.939670 -118.406549 353 123ft 0kts
16-Jun-20 18:15 33.939670 -118.406549 353 123ft 0kts
16-Jun-20 18:16 33.939670 -118.406549 353 123ft 0kts
16-Jun-20 18:17 33.939670 -118.406549 353 123ft 0kts
16-Jun-20 18:18 33.939619 -118.406542 353 123ft 2kts
16-Jun-20 18:19 33.939058 -118.406498 28 124ft 2kts
16-Jun-20 18:20 33.938892 -118.406976 81 125ft 1kts
16-Jun-20 18:21 33.938891 -118.406982 81 125ft 0kts
16-Jun-20 18:22 33.938891 -118.406982 81 125ft 0kts
16-Jun-20 18:23 33.938891 -118.406982 81 125ft 0kts
16-Jun-20 18:24 33.938941 -118.406487 83 124ft 8kts
16-Jun-20 18:25 33.939414 -118.401901 84 119ft 12kts
16-Jun-20 18:26 33.939928 -118.396875 83 110ft 17kts
16-Jun-20 18:27 33.940540 -118.390764 88 104ft 19kts
16-Jun-20 18:28 33.941037 -118.385208 83 103ft 12kts
16-Jun-20 18:29 33.940411 -118.383334 171 99ft 0kts
16-Jun-20 18:30 33.940411 -118.383334 171 99ft 0kts
16-Jun-20 18:31 33.939622 -118.383402 220 99ft 6kts
16-Jun-20 18:32 33.938826 -118.390060 263 103ft 66kts
16-Jun-20 18:33 33.933970 -118.436719 264 1452ft 164kts
16-Jun-20 18:34 33.910107 -118.490287 234 2838ft 231kts
16-Jun-20 18:35 33.858023 -118.546755 201 5827ft 271kts
16-Jun-20 18:36 33.778404 -118.542896 170 9076ft 296kts
16-Jun-20 18:37 33.696935 -118.501627 136 11397ft 347kts
16-Jun-20 18:38 33.658929 -118.395497 102 14474ft 364kts
16-Jun-20 18:39 33.644696 -118.274137 90 17458ft 379kts
16-Jun-20 18:40 33.644711 -118.145227 89 20187ft 396kts
16-Jun-20 18:41 33.644624 -118.017547 89 22529ft 413kts
16-Jun-20 18:42 33.644372 -117.877514 89 24877ft 427kts
16-Jun-20 18:43 33.629934 -117.734334 106 27075ft 439kts
16-Jun-20 18:44 33.594715 -117.592979 106 29167ft 448kts
16-Jun-20 18:45 33.558676 -117.448215 106 31037ft 458kts
16-Jun-20 18:46 33.522180 -117.302041 106 32969ft 461kts
16-Jun-20 18:47 33.502289 -117.148862 88 32990ft 468kts
16-Jun-20 18:48 33.501108 -116.990993 90 32990ft 469kts
16-Jun-20 18:49 33.498835 -116.833726 90 32991ft 469kts
16-Jun-20 18:50 33.496321 -116.675966 90 32983ft 468kts
16-Jun-20 18:51 33.493570 -116.517258 90 32831ft 468kts
16-Jun-20 18:52 33.490883 -116.361279 89 32751ft 469kts
16-Jun-20 18:53 33.488556 -116.204815 90 32733ft 469kts
16-Jun-20 18:54 33.487900 -116.048497 82 32737ft 467kts
16-Jun-20 18:55 33.524546 -115.900306 68 32734ft 465kts
16-Jun-20 18:56 33.567589 -115.753445 69 32735ft 465kts
16-Jun-20 18:57 33.610337 -115.601724 74 32737ft 465kts
16-Jun-20 18:58 33.615120 -115.446946 91 32735ft 468kts
16-Jun-20 18:59 33.610857 -115.289386 90 32760ft 468kts
16-Jun-20 19:00 33.606692 -115.131242 91 32761ft 470kts
16-Jun-20 19:01 33.602292 -114.971572 91 32761ft 469kts
16-Jun-20 19:02 33.597716 -114.812726 91 32762ft 469kts
16-Jun-20 19:03 33.576522 -114.656824 103 32763ft 468kts
16-Jun-20 19:04 33.545773 -114.501409 102 32637ft 465kts
16-Jun-20 19:05 33.515748 -114.348715 103 30999ft 456kts
16-Jun-20 19:06 33.485932 -114.197875 103 29165ft 457kts
16-Jun-20 19:07 33.455202 -114.043536 103 27303ft 463kts
16-Jun-20 19:08 33.423817 -113.887339 103 25438ft 467kts
16-Jun-20 19:09 33.393667 -113.737779 103 23568ft 432kts
16-Jun-20 19:10 33.365815 -113.600473 104 21735ft 405kts
16-Jun-20 19:11 33.338917 -113.468633 104 19904ft 394kts
16-Jun-20 19:12 33.316034 -113.340095 103 18073ft 381kts
16-Jun-20 19:13 33.294715 -113.215877 102 16208ft 361kts
16-Jun-20 19:14 33.278247 -113.100950 102 14551ft 343kts
16-Jun-20 19:15 33.276007 -112.986293 88 13206ft 334kts
16-Jun-20 19:16 33.279238 -112.872374 90 13022ft 338kts
16-Jun-20 19:17 33.285469 -112.759475 85 12412ft 335kts
16-Jun-20 19:18 33.296338 -112.646523 86 11780ft 320kts
16-Jun-20 19:19 33.306260 -112.541429 86 11167ft 312kts
16-Jun-20 19:21 33.315949 -112.437043 86 11018ft 311kts
16-Jun-20 19:22 33.325227 -112.336983 87 11004ft 266kts
16-Jun-20 19:23 33.333255 -112.249566 87 11017ft 263kts
16-Jun-20 19:24 33.341211 -112.161790 88 11017ft 265kts
16-Jun-20 19:25 33.347947 -112.073665 94 9705ft 262kts
16-Jun-20 19:26 33.346774 -111.987199 94 8214ft 254kts
16-Jun-20 19:27 33.346166 -111.903734 90 6810ft 249kts
16-Jun-20 19:28 33.351209 -111.822551 88 5435ft 238kts
16-Jun-20 19:29 33.376719 -111.758194 11 4708ft 234kts
16-Jun-20 19:30 33.432643 -111.768622 301 3639ft 195kts
16-Jun-20 19:31 33.448102 -111.825703 236 3048ft 179kts
16-Jun-20 19:32 33.440609 -111.878747 266 2996ft 159kts
16-Jun-20 19:33 33.440708 -111.925886 268 2258ft 136kts
16-Jun-20 19:34 33.440796 -111.970552 268 1530ft 130kts
16-Jun-20 19:35 33.440824 -112.008191 270 1139ft 63kts
16-Jun-20 19:36 33.439869 -112.017567 212 1139ft 10kts
16-Jun-20 19:36 33.438994 -112.021724 269 1139ft 21kts
16-Jun-20 19:38 33.439739 -112.024935 86 1139ft 16kts
16-Jun-20 19:39 33.439724 -112.017825 89 1138ft 26kts
16-Jun-20 19:39 33.439665 -112.011917 99 1139ft 11kts
16-Jun-20 19:41 33.438985 -112.006293 90 1139ft 15kts
16-Jun-20 19:41 33.437818 -112.003819 179 1138ft 10kts
16-Jun-20 19:42 33.437255 -112.002540 89 1138ft 1kts
16-Jun-20 19:43 33.437256 -112.002444 89 1139ft 0kts
16-Jun-20 19:44 33.437256 -112.002444 89 1139ft 0kts
16-Jun-20 19:45 33.437256 -112.002444 89 1139ft 0kts
16-Jun-20 19:46 33.437256 -112.002444 89 1139ft 0kts
16-Jun-20 19:47 33.437256 -112.002444 89 1139ft 0kts
16-Jun-20 19:48 33.437256 -112.002444 89 1139ft 0kts
16-Jun-20 19:49 33.437256 -112.002444 89 1139ft 0kts

Navigation Log

Ident Type
Flight plan parsing failed, navigation log unavailable